Airfield :
LOGIN :

Register | Disclaimer

   EN    FR    IT 

 










Legend :    VFR   Marginal VFR   IFR   Intensive IFR   Very Intensive IFR
Visi :
Ceiling :
>= 8 km
>= 3000ft
5 to 8 km
1000 to 3000 ft
1500m to 5 km
500 to 1000 ft
800 to 1500m
200 to 500 ft
< 800m
< 200 ft
Symbols :   Thunderstorms  Fog  Heavy snow  Heavy precipitations  Wind > 20 kt
SIGMETs :     Misc.  Thunderstorms  Icing  Turbulence  Mountain Waves  Volcanic Ashes






- Airport Elevation : 2119 ft


LERL - Central

CURRENT METAR :
  • 021600Z 02005KT 330V050 9999 SCT043CB 15/03 Q1011

EXPIRED METARs :
  • 021530Z 02004KT 320V070 9999 SCT045CB 14/05 Q1011
  • 021500Z 01008KT 340V050 9999 SCT035TCU 14/05 Q1011
  • 021430Z 34009KT 310V010 9999 FEW042 14/05 Q1011
  • 021400Z 34006KT 300V030 9999 SCT033 14/06 Q1011
  • 021330Z 01005KT 290V100 9999 SCT031 13/06 Q1011

TAF TAF LERL
Valid from the 02 at 15:00 until the 03 at 15:00 UTC


021400Z 0215/0315 VRB05KT 9999 SCT030 TX17/0315Z TN05/0306Z
PROB30
TEMPO 0215/0219 VRB15G25KT 3000 TS SHRA SCT030CB
PROB30
TEMPO 0304/0309 3000 BR BKN014



MET'MAP, your aeronautical weather chart ! - Copyright ORBIFLY December 2007 - Disclaimer

ORBIFLY MET'MAP TEAM :

Programming & Development : Alexandra Zaïnal
Concept & original design : Baudouin d'Aumeries
Assistance for programming : Marc-Olivier Méhu
Technical & hardware support : Manuel Goepfert

Contact : metmap@orbifly.com




SOURCES & CREDITS :

   NOAA